Time;durP1;ratioP1;P1;durP2;ratioP2;P2;SDS_P1;SDS_P2;PMS_P1;PMS_P2;Temp;Humidity;BMP_temperature;BMP_pressure;BME280_temperature;BME280_humidity;BME280_pressure;Samples;Min_cycle;Max_cycle;Signal;HPM_P1;HPM_P2
2023/09/23 00:01:58;;;;;;;13.63;12.27;;;;;;;13.93;72.44;100640.25;5091173;28;20434;-69
2023/09/23 00:04:23;;;;;;;12.80;11.80;;;;;;;13.93;72.91;100637.44;5091659;28;20024;-69
2023/09/23 00:06:50;;;;;;;12.52;11.40;;;;;;;13.88;72.81;100640.25;5086026;28;20020;-69
2023/09/23 00:09:17;;;;;;;13.13;12.13;;;;;;;13.84;73.23;100645.56;5089511;28;20035;-69
2023/09/23 00:11:43;;;;;;;12.90;11.88;;;;;;;13.87;73.38;100653.38;5090223;28;20494;-69
2023/09/23 00:14:10;;;;;;;13.55;12.35;;;;;;;13.85;73.14;100651.97;5091411;28;20095;-69
2023/09/23 00:16:35;;;;;;;12.57;11.57;;;;;;;13.84;73.11;100653.09;5090768;28;21474;-69
2023/09/23 00:19:02;;;;;;;13.70;12.40;;;;;;;13.84;73.15;100647.53;5090092;28;20031;-69
2023/09/23 00:21:27;;;;;;;13.13;11.82;;;;;;;13.76;73.46;100643.34;5086233;28;20024;-69
2023/09/23 00:23:57;;;;;;;13.52;12.20;;;;;;;13.81;73.25;100650.84;5077540;28;20074;-69
2023/09/23 00:26:22;;;;;;;12.63;11.52;;;;;;;13.81;73.37;100645.28;5086757;28;20085;-69
2023/09/23 00:28:54;;;;;;;13.05;11.90;;;;;;;13.73;73.52;100647.50;5072821;28;20029;-69
2023/09/23 00:31:19;;;;;;;12.57;11.27;;;;;;;13.75;73.82;100644.44;5083496;28;20743;-69
2023/09/23 00:33:45;;;;;;;13.05;11.95;;;;;;;13.74;73.56;100657.53;5090521;28;20032;-69
2023/09/23 00:36:10;;;;;;;12.70;11.48;;;;;;;13.70;74.06;100652.81;5078531;28;20383;-69
2023/09/23 00:38:37;;;;;;;11.70;10.60;;;;;;;13.73;74.13;100660.63;5084804;28;20028;-69
2023/09/23 00:41:08;;;;;;;11.65;10.60;;;;;;;13.66;74.44;100662.84;5074791;28;20388;-69
2023/09/23 00:43:34;;;;;;;11.98;10.38;;;;;;;13.67;74.49;100667.31;5080332;28;20028;-69
2023/09/23 00:46:03;;;;;;;12.63;10.20;;;;;;;13.72;74.32;100675.69;5091200;28;20028;-69
2023/09/23 00:48:36;;;;;;;11.55;10.45;;;;;;;13.73;74.56;100680.97;5091227;28;20039;-69
2023/09/23 00:51:03;;;;;;;11.75;9.20;;;;;;;13.75;74.42;100681.56;5087178;28;20023;-69
2023/09/23 00:53:29;;;;;;;12.23;9.70;;;;;;;13.80;74.32;100682.66;5087756;28;20075;-68
2023/09/23 00:55:55;;;;;;;11.73;9.32;;;;;;;13.70;74.16;100673.16;5091156;28;20032;-69
2023/09/23 00:58:22;;;;;;;11.82;9.43;;;;;;;13.66;74.53;100668.44;5090291;28;20043;-69
2023/09/23 01:00:48;;;;;;;11.50;8.55;;;;;;;13.72;74.45;100670.13;5089878;28;20349;-69
2023/09/23 01:03:15;;;;;;;9.93;8.93;;;;;;;13.66;74.60;100677.63;5090852;28;20099;-69
2023/09/23 01:05:41;;;;;;;11.57;9.00;;;;;;;13.66;74.61;100676.78;5090355;28;20028;-69
2023/09/23 01:08:18;;;;;;;11.02;8.30;;;;;;;13.71;74.53;100679.56;5091158;28;20035;-69
2023/09/23 01:10:43;;;;;;;9.32;8.15;;;;;;;13.66;74.75;100687.94;5074614;28;20080;-69
2023/09/23 01:13:09;;;;;;;9.90;7.53;;;;;;;13.65;74.75;100689.06;5075041;28;20038;-69
2023/09/23 01:15:40;;;;;;;8.73;7.82;;;;;;;13.66;74.89;100693.53;5090906;28;20024;-69
2023/09/23 01:18:13;;;;;;;11.10;7.28;;;;;;;13.62;75.17;100690.44;5090226;28;20048;-68
2023/09/23 01:20:39;;;;;;;10.68;7.70;;;;;;;13.66;75.17;100691.56;5090617;28;20067;-69
2023/09/23 01:23:11;;;;;;;9.32;7.35;;;;;;;13.63;75.20;100699.66;5080865;28;20032;-69
2023/09/23 01:25:37;;;;;;;8.52;7.45;;;;;;;13.59;75.28;100704.13;5088038;28;20103;-69
2023/09/23 01:28:11;;;;;;;11.63;7.65;;;;;;;13.67;75.23;100709.13;5090865;28;20111;-69
2023/09/23 01:30:36;;;;;;;9.85;7.40;;;;;;;13.68;75.70;100708.03;5090611;28;20530;-69
2023/09/23 01:33:07;;;;;;;11.85;7.72;;;;;;;13.70;74.93;100701.06;5092477;28;20034;-69
2023/09/23 01:35:32;;;;;;;8.75;7.20;;;;;;;13.72;75.02;100709.16;5094568;28;20105;-69
2023/09/23 01:37:59;;;;;;;7.22;6.15;;;;;;;13.68;74.96;100703.31;5090451;28;20025;-69
2023/09/23 01:40:25;;;;;;;7.57;6.80;;;;;;;13.69;75.01;100712.50;5093775;28;20028;-69
2023/09/23 01:42:53;;;;;;;8.05;7.03;;;;;;;13.67;75.43;100707.19;5094224;28;20031;-68
2023/09/23 01:45:22;;;;;;;8.90;6.53;;;;;;;13.66;74.71;100716.69;5094416;28;20074;-69
2023/09/23 01:47:48;;;;;;;7.93;6.57;;;;;;;13.63;75.47;100719.19;5093727;28;20468;-69
2023/09/23 01:50:13;;;;;;;6.40;5.80;;;;;;;13.64;75.30;100724.50;5094340;28;20030;-69
2023/09/23 01:52:41;;;;;;;8.98;5.95;;;;;;;13.66;75.75;100718.63;5092814;28;20020;-69
2023/09/23 01:55:10;;;;;;;7.70;6.10;;;;;;;13.57;75.64;100718.34;5093545;28;20055;-69
2023/09/23 01:57:35;;;;;;;6.55;5.85;;;;;;;13.65;75.33;100716.97;5089275;28;20036;-69
2023/09/23 02:00:02;;;;;;;8.55;5.25;;;;;;;13.65;75.35;100719.75;5093936;28;20039;-69
2023/09/23 02:02:29;;;;;;;8.23;5.30;;;;;;;13.68;74.84;100711.66;5093628;28;20385;-69
2023/09/23 02:04:56;;;;;;;7.22;5.18;;;;;;;13.67;75.10;100726.72;5094056;28;20024;-69
2023/09/23 02:07:21;;;;;;;6.97;5.18;;;;;;;13.66;75.30;100718.63;5093876;28;20661;-69
2023/09/23 02:09:50;;;;;;;7.25;5.20;;;;;;;13.68;75.14;100731.19;5093225;28;20051;-69
2023/09/23 02:12:15;;;;;;;6.30;4.32;;;;;;;13.62;75.08;100732.28;5091754;28;20028;-70
2023/09/23 02:14:41;;;;;;;6.80;4.85;;;;;;;13.65;75.13;100734.53;5091373;28;20020;-69
2023/09/23 02:17:06;;;;;;;10.18;5.10;;;;;;;13.60;75.10;100740.09;5091679;28;20779;-69
2023/09/23 02:19:31;;;;;;;6.40;4.22;;;;;;;13.54;75.12;100734.78;5093679;28;20027;-69
2023/09/23 02:21:57;;;;;;;7.03;4.30;;;;;;;13.58;75.06;100736.75;5092854;28;20080;-69
2023/09/23 02:24:22;;;;;;;7.95;4.10;;;;;;;13.62;75.06;100745.41;5093620;28;20035;-69
2023/09/23 02:26:48;;;;;;;8.13;4.10;;;;;;;13.60;74.97;100740.09;5092299;28;20035;-69
2023/09/23 02:29:17;;;;;;;8.75;4.60;;;;;;;13.55;74.82;100739.25;5092980;28;20095;-69
2023/09/23 02:31:48;;;;;;;8.25;4.20;;;;;;;13.55;75.05;100742.88;5090591;28;20061;-69
2023/09/23 02:34:18;;;;;;;5.20;4.10;;;;;;;13.51;75.00;100753.72;5088220;28;20020;-69
2023/09/23 02:36:49;;;;;;;8.88;4.18;;;;;;;13.46;75.06;100752.91;5092839;28;20348;-69
2023/09/23 02:39:17;;;;;;;6.03;4.05;;;;;;;13.45;75.14;100760.44;5093221;28;20403;-69
2023/09/23 02:41:49;;;;;;;6.35;4.07;;;;;;;13.47;75.12;100762.94;5091740;28;20119;-69
2023/09/23 02:44:18;;;;;;;;;;;;;;;13.67;74.44;100778.88;5092748;28;20032;-69
2023/09/23 02:46:45;;;;;;;4.78;3.60;;;;;;;13.46;74.55;100766.84;5093315;28;19912;-69
2023/09/23 02:49:11;;;;;;;7.88;3.80;;;;;;;13.40;74.96;100773.50;5089084;28;20016;-69
2023/09/23 02:51:36;;;;;;;6.40;4.13;;;;;;;13.38;75.36;100768.19;5092529;28;20111;-69
2023/09/23 02:54:03;;;;;;;7.22;3.85;;;;;;;13.39;74.91;100772.66;5093382;28;20028;-68
2023/09/23 02:56:30;;;;;;;7.00;3.67;;;;;;;13.42;75.03;100777.69;5091595;28;21832;-69
2023/09/23 02:58:56;;;;;;;4.90;3.50;;;;;;;13.41;74.83;100773.25;5091625;28;20072;-69
2023/09/23 03:01:22;;;;;;;5.82;4.13;;;;;;;13.40;75.14;100779.94;5093051;28;20055;-69
2023/09/23 03:03:47;;;;;;;8.90;3.75;;;;;;;13.37;74.86;100780.47;5092718;28;20059;-68
2023/09/23 03:06:15;;;;;;;7.95;3.85;;;;;;;13.41;74.67;100786.34;5087302;28;20032;-69
2023/09/23 03:08:43;;;;;;;7.32;3.75;;;;;;;13.37;74.95;100777.69;5072783;28;20040;-69
2023/09/23 03:11:11;;;;;;;8.68;3.33;;;;;;;13.36;75.35;100783.50;5072051;28;20029;-69
2023/09/23 03:13:37;;;;;;;6.07;3.47;;;;;;;13.33;75.21;100784.91;5072473;28;20495;-69
2023/09/23 03:16:10;;;;;;;6.20;3.10;;;;;;;13.32;75.11;100786.00;5072128;28;20033;-68
2023/09/23 03:18:36;;;;;;;6.47;3.42;;;;;;;13.27;75.21;100781.25;5071573;28;20044;-69
2023/09/23 03:21:09;;;;;;;8.35;3.83;;;;;;;13.15;75.42;100782.56;5078739;28;20133;-69
2023/09/23 03:23:39;;;;;;;9.40;3.42;;;;;;;13.17;75.93;100788.72;5088362;28;20032;-68
2023/09/23 03:26:06;;;;;;;8.80;3.53;;;;;;;13.25;75.79;100793.81;5071362;28;20047;-68
2023/09/23 03:28:33;;;;;;;6.18;3.22;;;;;;;13.20;75.41;100796.53;5071884;28;20479;-69
2023/09/23 03:31:03;;;;;;;8.25;3.25;;;;;;;13.24;75.93;100803.25;5072055;28;20112;-68
2023/09/23 03:33:29;;;;;;;7.50;3.00;;;;;;;13.30;75.30;100801.34;5072090;28;20028;-68
2023/09/23 03:35:55;;;;;;;7.32;3.20;;;;;;;13.25;75.38;100804.97;5080066;28;20026;-69
2023/09/23 03:38:20;;;;;;;5.47;3.20;;;;;;;13.23;75.24;100801.59;5091650;28;20102;-68
2023/09/23 03:40:54;;;;;;;7.85;3.75;;;;;;;13.22;75.64;100808.25;5087945;28;20065;-68
2023/09/23 03:43:20;;;;;;;7.25;3.72;;;;;;;13.22;75.46;100805.47;5092460;28;20027;-69
2023/09/23 03:45:47;;;;;;;4.55;3.28;;;;;;;13.23;75.25;100821.09;5091952;28;20028;-69
2023/09/23 03:48:14;;;;;;;5.35;3.10;;;;;;;13.17;75.30;100817.44;5091617;28;20369;-68
2023/09/23 03:50:42;;;;;;;8.50;3.45;;;;;;;13.25;75.43;100813.31;5090763;28;20542;-69
2023/09/23 03:53:09;;;;;;;4.85;3.40;;;;;;;13.21;75.08;100817.72;5091497;28;20043;-69
2023/09/23 03:55:34;;;;;;;5.80;3.13;;;;;;;13.20;74.96;100822.47;5091501;28;20034;-69
2023/09/23 03:58:12;;;;;;;6.38;3.35;;;;;;;13.20;75.44;100825.25;5085597;28;20040;-69
2023/09/23 04:00:37;;;;;;;7.43;3.20;;;;;;;13.17;75.61;100822.19;5091190;28;20542;-69
2023/09/23 04:03:02;;;;;;;4.85;3.17;;;;;;;13.23;75.21;100824.72;5092086;28;20099;-69
2023/09/23 04:05:30;;;;;;;6.15;3.25;;;;;;;13.15;75.39;100827.16;5089458;28;20483;-69
2023/09/23 04:07:56;;;;;;;3.40;3.00;;;;;;;13.24;75.63;100823.63;5083853;28;20036;-68
2023/09/23 04:10:24;;;;;;;6.20;3.40;;;;;;;13.18;75.71;100826.63;5092101;28;20430;-69
2023/09/23 04:12:51;;;;;;;8.23;3.17;;;;;;;13.16;75.77;100826.03;5089534;28;20082;-69
2023/09/23 04:15:19;;;;;;;8.90;3.42;;;;;;;13.20;76.02;100827.19;5087543;28;20449;-69
2023/09/23 04:17:44;;;;;;;9.07;3.25;;;;;;;13.18;76.00;100829.41;5091778;28;20044;-69
2023/09/23 04:20:10;;;;;;;7.53;3.63;;;;;;;13.14;76.26;100837.47;5091692;28;20054;-69
2023/09/23 04:22:37;;;;;;;7.55;3.67;;;;;;;13.16;75.95;100828.84;5091408;28;20024;-68
2023/09/23 04:25:06;;;;;;;7.97;3.58;;;;;;;13.14;76.16;100854.19;5091885;28;20023;-68
2023/09/23 04:27:38;;;;;;;5.40;3.08;;;;;;;13.11;76.15;100848.31;5091601;28;20020;-69
2023/09/23 04:30:15;;;;;;;7.25;3.17;;;;;;;13.14;76.32;100856.16;5083068;28;20032;-69
2023/09/23 04:32:41;;;;;;;6.13;3.50;;;;;;;13.12;75.66;100858.34;5091504;28;20491;-68
2023/09/23 04:35:15;;;;;;;6.90;3.20;;;;;;;13.08;76.41;100860.84;5091520;28;20024;-69
2023/09/23 04:37:41;;;;;;;6.53;3.15;;;;;;;13.12;76.39;100864.75;5091394;28;20031;-69
2023/09/23 04:40:12;;;;;;;9.98;3.60;;;;;;;13.08;76.04;100868.38;5091558;28;20032;-69
2023/09/23 04:42:39;;;;;;;8.65;3.30;;;;;;;13.12;75.92;100869.50;5091245;28;20028;-69
2023/09/23 04:45:08;;;;;;;8.07;3.15;;;;;;;13.10;75.99;100868.94;5090348;28;20058;-69
2023/09/23 04:47:35;;;;;;;6.63;3.20;;;;;;;13.09;75.89;100879.25;5081199;28;20107;-69
2023/09/23 04:50:07;;;;;;;5.85;3.40;;;;;;;13.14;75.86;100881.22;5091175;28;20028;-69
2023/09/23 04:52:32;;;;;;;;;;;;;;;13.31;75.63;100875.50;5092099;28;20478;-69
2023/09/23 04:54:57;;;;;;;5.57;3.60;;;;;;;13.13;75.48;100879.56;5091642;28;19991;-69
2023/09/23 04:57:26;;;;;;;4.25;3.15;;;;;;;13.12;75.58;100877.88;5091056;28;20055;-69
2023/09/23 04:59:56;;;;;;;4.93;3.50;;;;;;;13.08;76.13;100885.09;5090437;28;20035;-68
2023/09/23 05:02:22;;;;;;;5.68;3.35;;;;;;;13.12;76.02;100886.22;5078602;28;20024;-68
2023/09/23 05:04:48;;;;;;;8.30;3.50;;;;;;;13.10;75.56;100894.03;5070665;28;20027;-69
2023/09/23 05:07:14;;;;;;;8.38;3.80;;;;;;;13.00;76.21;100903.16;5072122;28;20487;-69
2023/09/23 05:09:40;;;;;;;8.70;3.30;;;;;;;12.92;76.01;100900.84;5075137;28;20029;-69
2023/09/23 05:12:08;;;;;;;5.13;3.42;;;;;;;12.99;76.06;100904.25;5074539;28;20058;-69
2023/09/23 05:14:51;;;;;;;4.35;3.63;;;;;;;12.94;76.19;100907.84;5074486;28;20468;-69
2023/09/23 05:17:17;;;;;;;5.65;3.15;;;;;;;12.98;75.91;100906.22;5088434;28;20044;-68
2023/09/23 05:19:43;;;;;;;6.13;3.47;;;;;;;12.98;75.88;100922.94;5090537;28;20028;-69
2023/09/23 05:22:10;;;;;;;6.47;3.65;;;;;;;13.01;75.81;100932.72;5094874;28;20100;-69
2023/09/23 05:24:35;;;;;;;4.28;3.40;;;;;;;12.93;76.38;100933.19;5085860;28;20039;-69
2023/09/23 05:27:01;;;;;;;6.90;3.53;;;;;;;13.02;76.11;100935.22;5081435;28;20036;-68
2023/09/23 05:29:26;;;;;;;6.18;3.67;;;;;;;13.00;76.01;100947.72;5074119;28;20028;-69
2023/09/23 05:31:53;;;;;;;7.47;3.88;;;;;;;12.91;75.89;100949.34;5075708;28;21115;-68
2023/09/23 05:34:21;;;;;;;7.80;3.67;;;;;;;12.99;75.97;100949.69;5094312;28;20475;-69
2023/09/23 05:36:47;;;;;;;6.18;3.45;;;;;;;13.00;75.93;100953.28;5093149;28;20032;-69
2023/09/23 05:39:19;;;;;;;7.20;3.50;;;;;;;12.98;76.22;100961.94;5092373;28;20038;-69
2023/09/23 05:41:48;;;;;;;5.47;3.30;;;;;;;12.93;75.95;100973.03;5089327;28;20028;-69
2023/09/23 05:44:16;;;;;;;7.32;3.50;;;;;;;12.97;75.52;100968.63;5094155;28;20094;-68
2023/09/23 05:46:42;;;;;;;6.57;3.30;;;;;;;12.91;76.14;100972.47;5092431;28;20028;-68
2023/09/23 05:49:12;;;;;;;5.70;3.28;;;;;;;12.92;76.15;100971.34;5091919;28;20050;-69
2023/09/23 05:51:38;;;;;;;4.47;3.10;;;;;;;12.90;75.80;100976.34;5092285;28;20028;-69
2023/09/23 05:54:03;;;;;;;6.13;4.03;;;;;;;12.86;76.00;100991.91;5092784;28;20479;-69
2023/09/23 05:56:29;;;;;;;7.15;3.60;;;;;;;12.94;76.30;100988.66;5093897;28;20031;-68
2023/09/23 05:58:54;;;;;;;7.95;3.58;;;;;;;12.90;76.02;100997.81;5094032;28;20486;-69
2023/09/23 06:01:19;;;;;;;6.30;3.47;;;;;;;12.97;76.13;100990.06;5088934;28;20046;-68
2023/09/23 06:03:45;;;;;;;6.18;3.70;;;;;;;12.96;76.39;100997.56;5093343;28;20390;-69
2023/09/23 06:06:11;;;;;;;5.63;3.08;;;;;;;13.00;76.14;101000.66;5093943;28;20534;-69
2023/09/23 06:08:39;;;;;;;8.35;3.78;;;;;;;12.95;76.03;101001.47;5093484;28;20028;-69
2023/09/23 06:11:04;;;;;;;7.50;3.63;;;;;;;12.99;76.56;101019.34;5093664;28;20024;-69
2023/09/23 06:13:31;;;;;;;6.05;3.40;;;;;;;13.01;76.42;101019.09;5093648;28;20028;-69
2023/09/23 06:16:01;;;;;;;6.47;3.60;;;;;;;12.99;76.52;101026.84;5093075;28;20111;-69
2023/09/23 06:18:26;;;;;;;5.95;3.60;;;;;;;13.02;76.23;101029.94;5075269;28;20048;-69
2023/09/23 06:21:00;;;;;;;6.47;3.70;;;;;;;13.02;76.34;101034.69;5072332;28;20392;-69
2023/09/23 06:23:25;;;;;;;5.05;3.20;;;;;;;12.99;76.50;101049.97;5073329;28;20464;-69
2023/09/23 06:25:59;;;;;;;6.05;3.53;;;;;;;12.98;76.58;101051.09;5073091;28;20036;-68
2023/09/23 06:28:33;;;;;;;6.20;3.28;;;;;;;13.03;76.81;101047.50;5072617;28;20021;-69
2023/09/23 06:30:58;;;;;;;8.40;3.85;;;;;;;13.04;77.06;101049.19;5073560;28;20112;-68
2023/09/23 06:33:24;;;;;;;6.85;3.70;;;;;;;13.07;76.79;101053.41;5090863;28;20150;-69
2023/09/23 06:35:50;;;;;;;8.68;3.72;;;;;;;13.05;77.00;101050.00;5084493;28;20057;-69
2023/09/23 06:38:18;;;;;;;8.38;3.80;;;;;;;13.05;77.24;101058.38;5087102;28;20517;-68
2023/09/23 06:40:43;;;;;;;8.05;3.80;;;;;;;13.10;77.40;101059.28;5089690;28;20035;-68
2023/09/23 06:43:09;;;;;;;11.43;4.10;;;;;;;13.12;77.17;101061.78;5072710;28;20040;-69
2023/09/23 06:45:35;;;;;;;6.78;3.45;;;;;;;13.17;76.30;101067.44;5072875;28;20103;-68
2023/09/23 06:48:01;;;;;;;5.05;3.95;;;;;;;13.13;77.46;101071.84;5085484;28;20046;-68
2023/09/23 06:50:27;;;;;;;4.15;3.55;;;;;;;13.20;77.68;101080.81;5092409;28;20016;-68
2023/09/23 06:52:52;;;;;;;8.10;3.78;;;;;;;13.19;77.69;101074.41;5092879;28;20479;-70
2023/09/23 06:55:17;;;;;;;10.38;3.72;;;;;;;13.21;77.10;101086.16;5091390;28;20735;-68
2023/09/23 06:57:45;;;;;;;8.73;4.25;;;;;;;13.18;77.34;101081.09;5086752;28;20657;-70
2023/09/23 07:00:12;;;;;;;13.90;4.13;;;;;;;13.21;77.55;101082.53;5094968;28;20497;-70
2023/09/23 07:02:37;;;;;;;7.68;3.90;;;;;;;13.22;77.71;101086.97;5079146;28;20035;-69
2023/09/23 07:05:02;;;;;;;9.82;4.43;;;;;;;13.20;78.20;101091.97;5092186;28;20024;-69
2023/09/23 07:07:28;;;;;;;5.78;3.60;;;;;;;13.24;78.06;101093.16;5091600;28;20092;-69
2023/09/23 07:09:53;;;;;;;7.28;3.90;;;;;;;13.26;77.98;101094.56;5079234;28;20131;-70
2023/09/23 07:12:19;;;;;;;7.68;4.13;;;;;;;13.25;77.70;101103.22;5092214;28;20032;-69
2023/09/23 07:14:45;;;;;;;6.05;3.97;;;;;;;13.30;78.14;101096.84;5091032;28;20375;-67
2023/09/23 07:17:10;;;;;;;8.95;4.03;;;;;;;13.32;78.07;101105.75;5092766;28;20081;-67
2023/09/23 07:19:35;;;;;;;9.45;4.15;;;;;;;13.31;77.98;101110.50;5102855;28;20097;-68
2023/09/23 07:22:02;;;;;;;7.25;4.20;;;;;;;13.38;78.07;101111.13;5093652;28;20084;-69
2023/09/23 07:24:33;;;;;;;8.05;3.67;;;;;;;13.40;78.32;101120.09;5087398;28;20043;-70
2023/09/23 07:27:02;;;;;;;6.30;3.78;;;;;;;13.44;77.98;101126.81;5087606;28;20020;-66
2023/09/23 07:29:27;;;;;;;9.77;4.15;;;;;;;13.44;78.41;101129.59;5088482;28;20099;-65
2023/09/23 07:31:53;;;;;;;7.40;4.35;;;;;;;13.46;78.47;101129.31;5089875;28;20419;-66
2023/09/23 07:34:19;;;;;;;7.60;4.28;;;;;;;13.50;77.82;101131.31;5100923;28;20419;-65
2023/09/23 07:36:45;;;;;;;6.75;4.30;;;;;;;13.59;78.20;101136.38;5090692;28;20451;-65
2023/09/23 07:39:10;;;;;;;12.40;4.30;;;;;;;13.62;77.86;101144.22;5098827;28;20035;-64
2023/09/23 07:41:36;;;;;;;7.38;3.72;;;;;;;13.63;78.12;101148.69;5088436;28;20348;-66
2023/09/23 07:44:02;;;;;;;9.13;4.20;;;;;;;13.72;77.73;101153.53;5093341;28;20111;-66
2023/09/23 07:46:27;;;;;;;8.10;4.13;;;;;;;13.80;77.71;101157.78;5093158;28;20475;-66
2023/09/23 07:48:52;;;;;;;9.00;4.03;;;;;;;13.88;77.53;101157.28;5091973;28;20040;-66
2023/09/23 07:51:20;;;;;;;7.47;3.70;;;;;;;13.94;78.02;101169.31;5089645;28;20028;-66
2023/09/23 07:53:45;;;;;;;9.20;3.75;;;;;;;14.03;77.89;101164.91;5095520;28;20032;-65
2023/09/23 07:56:14;;;;;;;5.85;3.42;;;;;;;14.17;78.22;101173.66;5092310;28;20031;-66
2023/09/23 07:58:39;;;;;;;8.25;4.00;;;;;;;14.31;77.81;101174.03;5094121;27;20036;-66
2023/09/23 08:01:04;;;;;;;8.15;3.60;;;;;;;14.41;77.60;101162.91;5084111;28;20035;-66
2023/09/23 08:03:30;;;;;;;6.32;3.53;;;;;;;14.50;77.33;101172.47;5095059;28;20102;-65
2023/09/23 08:05:55;;;;;;;9.60;3.60;;;;;;;14.60;77.53;101177.28;5090726;28;20107;-65
2023/09/23 08:08:21;;;;;;;7.55;4.00;;;;;;;14.70;76.61;101182.94;5086559;28;20024;-68
2023/09/23 08:10:49;;;;;;;5.15;3.22;;;;;;;14.72;76.73;101191.84;5090198;28;20031;-68
2023/09/23 08:13:15;;;;;;;9.32;3.65;;;;;;;14.78;76.16;101196.38;5089941;28;20016;-69
2023/09/23 08:15:40;;;;;;;10.13;3.33;;;;;;;14.89;76.25;101208.41;5091228;28;20032;-69
2023/09/23 08:18:06;;;;;;;8.88;3.42;;;;;;;14.95;75.83;101198.94;5087269;28;20044;-68
2023/09/23 08:20:31;;;;;;;6.32;3.60;;;;;;;14.99;75.87;101200.06;5071709;28;20039;-68
2023/09/23 08:22:56;;;;;;;10.98;4.05;;;;;;;15.07;75.80;101204.28;5071377;28;20016;-70
2023/09/23 08:25:22;;;;;;;13.95;3.90;;;;;;;15.15;75.60;101212.16;5071290;28;20024;-70
2023/09/23 08:27:47;;;;;;;7.07;3.60;;;;;;;15.19;75.84;101208.50;5076459;28;20112;-70
2023/09/23 08:30:15;;;;;;;9.07;4.07;;;;;;;15.28;75.54;101220.00;5091476;28;20031;-70
2023/09/23 08:32:40;;;;;;;7.72;3.20;;;;;;;15.33;75.34;101220.03;5091505;28;20049;-70
2023/09/23 08:35:07;;;;;;;9.43;4.47;;;;;;;15.39;75.56;101223.66;5089986;28;20063;-71
2023/09/23 08:37:35;;;;;;;6.47;3.40;;;;;;;15.34;74.51;101221.72;5086192;28;20098;-71
2023/09/23 08:40:04;;;;;;;8.45;3.28;;;;;;;15.36;74.47;101227.84;5083608;28;20032;-69
2023/09/23 08:42:29;;;;;;;6.72;3.05;;;;;;;15.40;74.91;101228.13;5089850;28;20540;-69
2023/09/23 08:44:55;;;;;;;7.80;3.20;;;;;;;15.47;75.30;101240.75;5091541;28;20036;-71
2023/09/23 08:47:23;;;;;;;6.20;3.30;;;;;;;15.52;74.57;101241.88;5099414;28;20055;-70
2023/09/23 08:49:51;;;;;;;6.15;3.08;;;;;;;15.56;74.29;101243.88;5105364;28;20047;-71
2023/09/23 08:52:19;;;;;;;7.18;2.92;;;;;;;15.62;74.33;101259.53;5091186;28;20876;-70
2023/09/23 08:54:48;;;;;;;7.63;2.83;;;;;;;15.61;74.66;101260.66;5080859;28;20024;-68
2023/09/23 08:57:14;;;;;;;7.70;2.83;;;;;;;15.82;74.92;101260.72;5087387;28;20050;-68
2023/09/23 08:59:39;;;;;;;6.47;2.90;;;;;;;15.91;74.82;101271.06;5086124;28;20078;-69
2023/09/23 09:02:08;;;;;;;5.57;3.25;;;;;;;16.02;73.39;101269.13;5078182;28;20032;-68
2023/09/23 09:04:34;;;;;;;6.57;3.45;;;;;;;16.06;73.19;101267.44;5084193;28;20043;-69
2023/09/23 09:06:59;;;;;;;7.57;2.90;;;;;;;16.02;73.02;101271.06;5088732;28;20043;-70
2023/09/23 09:09:25;;;;;;;6.45;3.05;;;;;;;16.02;72.46;101273.88;5090101;28;20085;-68
2023/09/23 09:11:53;;;;;;;5.05;2.60;;;;;;;16.03;72.69;101273.59;5089028;28;20024;-69
2023/09/23 09:14:19;;;;;;;5.15;2.53;;;;;;;16.01;72.76;101270.25;5082381;28;20090;-69
2023/09/23 09:16:45;;;;;;;6.90;2.50;;;;;;;16.08;72.91;101264.38;5083536;28;20048;-70
2023/09/23 09:19:11;;;;;;;6.95;2.47;;;;;;;16.09;72.92;101283.69;5087609;28;20031;-69
2023/09/23 09:21:36;;;;;;;8.35;2.33;;;;;;;16.11;73.19;101292.66;5090974;28;20476;-69
2023/09/23 09:24:02;;;;;;;7.30;2.40;;;;;;;16.10;72.87;101292.91;5090380;28;20028;-70
2023/09/23 09:26:31;;;;;;;4.38;2.00;;;;;;;16.08;73.06;101301.63;5084355;28;20677;-69
2023/09/23 09:28:56;;;;;;;6.20;2.22;;;;;;;15.96;72.28;101306.66;5086479;28;20088;-67
2023/09/23 09:31:28;;;;;;;6.07;2.30;;;;;;;15.89;72.86;101312.50;5086938;28;20032;-64
2023/09/23 09:33:56;;;;;;;6.40;2.20;;;;;;;15.84;72.13;101311.66;5070790;28;20031;-70
2023/09/23 09:36:23;;;;;;;8.38;2.30;;;;;;;15.76;73.18;101301.00;5086697;28;20290;-70
2023/09/23 09:38:52;;;;;;;7.70;2.22;;;;;;;15.75;73.44;101311.34;5087236;28;20040;-70
2023/09/23 09:41:24;;;;;;;9.77;2.42;;;;;;;15.67;72.72;101303.50;5090284;28;20031;-67
2023/09/23 09:43:50;;;;;;;5.43;2.22;;;;;;;15.68;72.89;101314.44;5090064;28;20099;-67
2023/09/23 09:46:20;;;;;;;7.13;2.15;;;;;;;15.68;73.31;101322.00;5090005;28;20028;-67
2023/09/23 09:48:48;;;;;;;5.75;1.98;;;;;;;15.65;73.35;101328.13;5089705;28;20439;-67
2023/09/23 09:51:15;;;;;;;6.22;2.05;;;;;;;15.59;73.42;101323.59;5090422;28;20059;-67
2023/09/23 09:53:45;;;;;;;7.97;2.20;;;;;;;15.58;73.15;101321.91;5085075;28;20430;-67
2023/09/23 09:56:11;;;;;;;13.75;2.88;;;;;;;15.55;73.25;101328.06;5094255;28;20077;-67
2023/09/23 09:58:38;;;;;;;5.75;2.17;;;;;;;15.52;73.39;101329.44;5093627;28;20036;-67
2023/09/23 10:01:04;;;;;;;7.20;2.10;;;;;;;15.52;73.76;101326.63;5092537;28;20023;-67
2023/09/23 10:03:29;;;;;;;9.57;2.40;;;;;;;15.52;74.48;101325.81;5094057;28;20047;-67
2023/09/23 10:05:59;;;;;;;5.38;2.15;;;;;;;15.52;74.17;101329.44;5093524;28;20463;-67
2023/09/23 10:08:25;;;;;;;6.75;2.30;;;;;;;15.54;73.94;101329.19;5090012;28;20071;-67
2023/09/23 10:10:58;;;;;;;10.52;2.25;;;;;;;15.53;74.08;101324.72;5075459;28;20384;-67
2023/09/23 10:13:24;;;;;;;7.88;2.63;;;;;;;15.57;74.49;101331.44;5073052;28;20017;-67
2023/09/23 10:15:50;;;;;;;6.68;2.40;;;;;;;15.55;73.88;101328.06;5073859;28;20491;-67
2023/09/23 10:18:19;;;;;;;6.63;2.40;;;;;;;15.61;74.10;101339.00;5073008;28;20033;-67
2023/09/23 10:20:56;;;;;;;10.60;2.60;;;;;;;15.67;74.48;101334.28;5072943;28;20043;-67
2023/09/23 10:23:21;;;;;;;8.05;2.67;;;;;;;15.67;74.23;101337.06;5076664;28;20103;-67
2023/09/23 10:25:52;;;;;;;8.27;2.63;;;;;;;15.70;74.54;101339.34;5084791;28;20109;-67
2023/09/23 10:28:30;;;;;;;4.38;1.75;;;;;;;15.71;74.23;101347.44;5072658;28;20033;-67
2023/09/23 10:31:06;;;;;;;6.28;2.38;;;;;;;15.70;74.06;101350.53;5073374;28;20025;-67
2023/09/23 10:33:34;;;;;;;7.35;2.88;;;;;;;15.67;73.94;101348.28;5072916;28;20494;-67
2023/09/23 10:36:01;;;;;;;5.43;2.72;;;;;;;15.66;73.98;101349.41;5073590;28;20041;-67
2023/09/23 10:38:30;;;;;;;7.93;2.17;;;;;;;15.66;74.71;101352.19;5091570;28;20505;-67
2023/09/23 10:40:56;;;;;;;7.72;2.40;;;;;;;15.67;73.82;101354.69;5093000;28;20047;-68
2023/09/23 10:43:24;;;;;;;8.50;2.58;;;;;;;15.68;73.86;101363.97;5092749;28;20059;-67
2023/09/23 10:45:52;;;;;;;12.05;3.30;;;;;;;15.70;73.79;101365.34;5088760;28;20402;-67
2023/09/23 10:48:17;;;;;;;6.85;2.63;;;;;;;15.71;73.59;101357.78;5092604;28;20024;-67
2023/09/23 10:50:44;;;;;;;4.22;2.28;;;;;;;15.71;73.58;101364.22;5092781;28;20074;-67
2023/09/23 10:53:11;;;;;;;3.75;2.40;;;;;;;15.73;74.21;101377.97;5090502;28;20032;-68
2023/09/23 10:55:36;;;;;;;5.65;2.90;;;;;;;15.71;73.01;101382.97;5092483;28;20439;-67
2023/09/23 10:58:02;;;;;;;5.80;2.80;;;;;;;15.71;73.76;101382.97;5092918;28;20179;-68
2023/09/23 11:00:33;;;;;;;7.45;2.60;;;;;;;15.72;74.09;101387.50;5087598;28;20034;-67
2023/09/23 11:03:24;;;;;;;6.25;3.00;;;;;;;15.74;74.12;101393.63;5092198;28;20024;-67
2023/09/23 11:05:51;;;;;;;7.93;2.65;;;;;;;15.76;74.51;101393.34;5089986;28;20085;-67
2023/09/23 11:08:18;;;;;;;4.97;3.35;;;;;;;15.73;74.50;101397.56;5092602;28;20089;-67
2023/09/23 11:10:45;;;;;;;6.43;2.80;;;;;;;15.79;74.90;101404.84;5090004;28;20453;-67
2023/09/23 11:13:12;;;;;;;6.47;3.05;;;;;;;15.84;74.42;101404.88;5092500;28;20035;-67
2023/09/23 11:15:45;;;;;;;5.97;3.53;;;;;;;15.95;73.40;101394.53;5092374;28;20027;-67
2023/09/23 11:18:15;;;;;;;7.97;3.33;;;;;;;16.12;74.11;101400.75;5075172;28;20093;-67
2023/09/23 11:20:42;;;;;;;9.15;3.28;;;;;;;16.27;74.98;101396.28;5071744;28;20036;-67
2023/09/23 11:23:10;;;;;;;6.60;3.08;;;;;;;16.41;73.57;101401.06;5072165;28;20081;-67
2023/09/23 11:25:42;;;;;;;6.57;2.97;;;;;;;16.56;73.22;101405.00;5071730;28;20193;-67